Lynchburg, Virginia
Current Conditions -  °F | °C
As of 11:54 PM on Saturday 22 Nov 2014 (Local Time) from KLYH Reporting Station
Clear Clear  
Wind Chill: 30°   Ceiling: Unl
Heat Index: 30°   Visibility: NA
Dew Point: 19°   Wind: 0mph
Humidity: 64%   Direction: NA
Pressure: 30.3"   Gusts: NA
Location:  37.4°N, 79.15°W
Report Text: KLYH 230454Z AUTO 00000KT CLR M01/M07 A3030 RMK AO2 SLP266 T10111072 400941094 $
Loading
Personal Weather Stations






























Interactive Weather Map New forecast layout! Learn more

10-Day Weather Forecast

Advertisements
Track Severe Weather on mobile